createdAt,value
2018-09-14T00:00:17.147Z,3.93
2018-09-14T00:02:46.008Z,7.53
2018-09-14T00:05:15.588Z,1.67
2018-09-14T00:07:44.501Z,2.13
2018-09-14T00:10:13.374Z,3.83
2018-09-14T00:12:42.239Z,3.27
2018-09-14T00:15:11.060Z,3.53
2018-09-14T00:17:40.272Z,6.80
2018-09-14T00:20:09.594Z,2.43
2018-09-14T00:22:38.888Z,2.63
2018-09-14T00:25:07.773Z,3.07
2018-09-14T00:27:37.448Z,6.63
2018-09-14T00:30:06.764Z,4.87
2018-09-14T00:32:36.032Z,2.90
2018-09-14T00:35:05.380Z,3.50
2018-09-14T00:37:34.272Z,3.80
2018-09-14T00:40:03.125Z,5.10
2018-09-14T00:42:32.401Z,5.57
2018-09-14T00:45:01.772Z,3.60
2018-09-14T00:47:31.392Z,3.17
2018-09-14T00:50:00.322Z,5.40
2018-09-14T00:52:29.198Z,4.63
2018-09-14T00:54:58.028Z,2.57
2018-09-14T00:57:27.242Z,3.03
2018-09-14T00:59:56.128Z,7.33
2018-09-14T01:02:24.998Z,3.67
2018-09-14T01:04:53.851Z,7.10
2018-09-14T01:07:23.209Z,1.70
2018-09-14T01:09:52.113Z,5.80
2018-09-14T01:12:20.928Z,3.70
2018-09-14T01:14:50.185Z,4.00
2018-09-14T01:17:19.568Z,6.20
2018-09-14T01:19:48.995Z,3.33
2018-09-14T01:22:17.888Z,4.27
2018-09-14T01:24:46.679Z,6.47
2018-09-14T01:27:15.508Z,5.23
2018-09-14T01:29:44.675Z,4.33
2018-09-14T01:32:14.001Z,2.27
2018-09-14T01:34:42.964Z,4.27
2018-09-14T01:37:11.820Z,4.00
2018-09-14T01:39:41.090Z,4.57
2018-09-14T01:42:10.422Z,2.73
2018-09-14T01:44:39.386Z,5.20
2018-09-14T01:47:08.643Z,4.20
2018-09-14T01:49:38.032Z,6.13
2018-09-14T01:52:07.046Z,3.57
2018-09-14T01:54:35.924Z,7.07
2018-09-14T01:57:04.801Z,2.73
2018-09-14T01:59:33.614Z,6.73
2018-09-14T02:02:02.481Z,7.00
2018-09-14T02:04:31.361Z,3.23
2018-09-14T02:12:05.496Z,3.53
2018-09-14T02:14:34.297Z,3.37
2018-09-14T02:17:03.116Z,3.73
2018-09-14T02:19:31.913Z,2.30
2018-09-14T02:22:00.877Z,2.67
2018-09-14T02:24:29.684Z,4.40
2018-09-14T02:26:58.480Z,6.10
2018-09-14T02:29:27.296Z,3.23
2018-09-14T02:31:56.298Z,1.67
2018-09-14T02:34:25.115Z,6.20
2018-09-14T02:36:53.943Z,2.10
2018-09-14T02:39:22.734Z,4.03
2018-09-14T02:41:51.555Z,4.67
2018-09-14T02:44:20.345Z,4.10
2018-09-14T02:46:49.136Z,2.30
2018-09-14T02:49:17.956Z,2.10
2018-09-14T02:51:46.792Z,3.03
2018-09-14T02:54:15.673Z,4.43
2018-09-14T02:56:44.472Z,3.97
2018-09-14T02:59:13.270Z,4.97
2018-09-14T03:01:42.077Z,4.47
2018-09-14T03:04:10.888Z,3.73
2018-09-14T03:06:39.721Z,3.67
2018-09-14T03:09:09.096Z,2.80
2018-09-14T03:11:37.984Z,3.83
2018-09-14T03:14:07.112Z,3.37
2018-09-14T03:16:36.072Z,4.97
2018-09-14T03:19:05.009Z,3.83
2018-09-14T03:21:33.809Z,7.07
2018-09-14T03:24:02.627Z,3.10
2018-09-14T03:26:31.470Z,3.93
2018-09-14T03:29:00.300Z,3.10
2018-09-14T03:31:29.084Z,3.50
2018-09-14T03:33:57.909Z,3.13
2018-09-14T03:36:26.692Z,3.03
2018-09-14T03:38:55.529Z,2.57
2018-09-14T03:41:24.340Z,4.57
2018-09-14T03:43:53.138Z,4.70
2018-09-14T03:46:21.984Z,4.30
2018-09-14T03:48:50.792Z,2.77
2018-09-14T03:51:19.568Z,3.23
2018-09-14T03:53:48.366Z,5.93
2018-09-14T03:56:17.492Z,4.47
2018-09-14T03:58:46.693Z,3.17
2018-09-14T04:01:15.798Z,3.57
2018-09-14T04:03:44.636Z,4.37
2018-09-14T04:06:13.467Z,5.27
2018-09-14T04:08:42.280Z,3.10
2018-09-14T04:11:11.138Z,2.53
2018-09-14T04:13:39.934Z,3.70
2018-09-14T04:16:08.757Z,2.30
2018-09-14T04:18:37.603Z,3.17
2018-09-14T04:21:06.486Z,3.47
2018-09-14T04:23:35.382Z,3.60
2018-09-14T04:26:04.156Z,8.83
2018-09-14T04:28:33.009Z,5.37
2018-09-14T04:31:01.840Z,5.90
2018-09-14T04:33:30.620Z,5.17
2018-09-14T04:35:59.449Z,2.50
2018-09-14T04:38:28.281Z,3.00
2018-09-14T04:40:57.056Z,3.73
2018-09-14T04:43:25.840Z,6.23
2018-09-14T04:45:54.676Z,4.00
2018-09-14T04:48:23.560Z,1.77
2018-09-14T04:50:52.748Z,4.30
2018-09-14T04:53:21.646Z,2.70
2018-09-14T04:55:50.430Z,4.37
2018-09-14T04:58:19.686Z,4.57
2018-09-14T05:00:48.491Z,4.17
2018-09-14T05:03:17.333Z,2.40
2018-09-14T05:05:46.146Z,7.40
2018-09-14T05:08:14.936Z,2.03
2018-09-14T05:10:43.735Z,4.00
2018-09-14T05:13:12.544Z,7.80
2018-09-14T05:15:41.389Z,3.17
2018-09-14T05:18:10.244Z,3.77
2018-09-14T05:20:39.152Z,3.33
2018-09-14T05:23:07.956Z,5.03
2018-09-14T05:25:36.771Z,3.00
2018-09-14T05:28:05.740Z,3.50
2018-09-14T05:30:34.580Z,4.30
2018-09-14T05:33:03.392Z,3.87
2018-09-14T05:35:32.210Z,3.83
2018-09-14T05:38:01.046Z,5.47
2018-09-14T05:40:29.916Z,4.27
2018-09-14T05:42:58.744Z,2.53
2018-09-14T05:45:27.597Z,5.97
2018-09-14T05:47:56.448Z,3.90
2018-09-14T05:50:25.869Z,7.10
2018-09-14T05:52:54.653Z,4.03
2018-09-14T05:55:23.436Z,2.53
2018-09-14T05:57:52.236Z,8.43
2018-09-14T06:00:21.081Z,2.10
2018-09-14T06:02:49.964Z,2.63
2018-09-14T06:05:18.857Z,3.83
2018-09-14T06:07:47.691Z,2.03
2018-09-14T06:10:16.989Z,2.60
2018-09-14T06:12:45.914Z,3.83
2018-09-14T06:15:14.717Z,4.37
2018-09-14T06:17:43.520Z,5.27
2018-09-14T06:20:12.385Z,2.47
2018-09-14T06:22:41.255Z,1.50
2018-09-14T06:25:09.967Z,4.03
2018-09-14T06:27:38.801Z,2.13
2018-09-14T06:30:07.617Z,3.50
2018-09-14T06:32:36.438Z,1.73
2018-09-14T06:35:05.288Z,1.10
2018-09-14T06:37:34.078Z,2.70
2018-09-14T06:40:02.932Z,1.63
2018-09-14T06:42:31.750Z,1.17
2018-09-14T06:45:00.606Z,3.33
2018-09-14T06:47:29.864Z,1.77
2018-09-14T06:49:58.640Z,2.50
2018-09-14T06:52:28.853Z,3.13
2018-09-14T06:54:57.688Z,2.97
2018-09-14T06:57:26.492Z,1.80
2018-09-14T06:59:55.423Z,3.03
2018-09-14T07:02:24.189Z,4.30
2018-09-14T07:04:53.380Z,2.03
2018-09-14T07:07:22.204Z,2.20
2018-09-14T07:09:51.009Z,1.43
2018-09-14T07:12:19.836Z,1.80
2018-09-14T07:14:48.640Z,3.23
2018-09-14T07:17:17.511Z,2.37
2018-09-14T07:19:46.375Z,3.67
2018-09-14T07:22:15.244Z,2.37
2018-09-14T07:24:44.170Z,2.70
2018-09-14T07:27:12.890Z,0.80
2018-09-14T07:29:41.675Z,3.53
2018-09-14T07:32:10.561Z,1.67
2018-09-14T07:34:39.375Z,0.97
2018-09-14T07:37:08.168Z,1.53
2018-09-14T07:39:37.057Z,2.67
2018-09-14T07:42:05.876Z,1.83
2018-09-14T07:44:35.177Z,2.17
2018-09-14T07:47:04.007Z,1.17
2018-09-14T07:49:33.536Z,0.97
2018-09-14T07:52:02.339Z,0.70
2018-09-14T07:54:32.214Z,0.93
2018-09-14T07:57:01.032Z,3.20
2018-09-14T07:59:30.780Z,2.23
2018-09-14T08:01:59.620Z,1.90
2018-09-14T08:04:28.433Z,0.70
2018-09-14T08:06:57.589Z,1.00
2018-09-14T08:09:26.520Z,0.77
2018-09-14T08:11:55.434Z,3.63
2018-09-14T08:14:24.198Z,4.37
2018-09-14T08:16:53.017Z,1.83
2018-09-14T08:19:21.858Z,3.20
2018-09-14T08:21:50.731Z,1.13
2018-09-14T08:24:19.546Z,2.33
2018-09-14T08:26:48.409Z,4.63
2018-09-14T08:29:17.231Z,5.23
2018-09-14T08:31:46.029Z,3.33
2018-09-14T08:34:14.861Z,1.47
2018-09-14T08:36:44.100Z,3.37
2018-09-14T08:39:13.264Z,2.13
2018-09-14T08:41:43.480Z,2.83
2018-09-14T08:44:12.301Z,2.30
2018-09-14T08:46:42.609Z,2.13
2018-09-14T08:49:11.460Z,2.30
2018-09-14T08:51:40.303Z,3.87
2018-09-14T08:54:10.222Z,4.07
2018-09-14T08:56:39.069Z,3.03
2018-09-14T08:59:07.857Z,2.80
2018-09-14T09:01:36.712Z,1.13
2018-09-14T09:04:05.528Z,1.20
2018-09-14T09:06:34.380Z,3.03
2018-09-14T09:09:03.771Z,2.13
2018-09-14T09:11:32.741Z,2.43
2018-09-14T09:14:01.488Z,1.37
2018-09-14T09:16:30.388Z,1.30
2018-09-14T09:18:59.269Z,2.43
2018-09-14T09:21:28.445Z,3.07
2018-09-14T09:23:57.932Z,2.70
2018-09-14T09:26:26.951Z,3.27
2018-09-14T09:28:55.731Z,1.17
2018-09-14T09:31:24.588Z,1.50
2018-09-14T09:33:53.959Z,0.43
2018-09-14T09:36:22.822Z,0.80
2018-09-14T09:38:51.663Z,1.13
2018-09-14T09:41:20.503Z,0.67
2018-09-14T09:43:49.335Z,0.73
2018-09-14T09:46:18.147Z,2.03
2018-09-14T09:48:47.182Z,1.77
2018-09-14T09:51:16.140Z,0.50
2018-09-14T09:53:45.679Z,0.40
2018-09-14T09:56:14.488Z,0.93
2018-09-14T09:58:43.409Z,1.43
2018-09-14T10:01:17.814Z,3.60
2018-09-14T10:03:52.673Z,0.73
2018-09-14T10:06:25.392Z,1.43
2018-09-14T10:08:55.104Z,0.60
2018-09-14T10:11:24.433Z,1.40
2018-09-14T10:13:53.293Z,0.77
2018-09-14T10:16:22.209Z,1.30
2018-09-14T10:18:51.036Z,1.70
2018-09-14T10:21:20.021Z,1.27
2018-09-14T10:23:48.779Z,1.80
2018-09-14T10:26:17.647Z,1.10
2018-09-14T10:28:47.348Z,3.37
2018-09-14T10:31:16.467Z,1.37
2018-09-14T10:33:46.140Z,2.33
2018-09-14T10:36:15.163Z,0.90
2018-09-14T10:38:43.976Z,3.93
2018-09-14T10:41:12.788Z,0.87
2018-09-14T10:43:41.631Z,6.27
2018-09-14T10:46:10.651Z,2.93
2018-09-14T10:48:39.526Z,2.43
2018-09-14T10:51:08.802Z,1.07
2018-09-14T10:53:37.672Z,4.33
2018-09-14T10:56:06.573Z,0.30
2018-09-14T10:58:40.760Z,1.67
2018-09-14T11:01:09.968Z,1.00
2018-09-14T11:03:38.768Z,1.10
2018-09-14T11:06:07.597Z,0.70
2018-09-14T11:08:36.409Z,2.30
2018-09-14T11:11:05.377Z,5.43
2018-09-14T11:13:34.265Z,1.07
2018-09-14T11:16:03.933Z,1.83
2018-09-14T11:18:32.815Z,1.13
2018-09-14T11:21:01.641Z,3.63
2018-09-14T11:23:30.481Z,0.70
2018-09-14T11:25:59.352Z,0.87
2018-09-14T11:28:28.164Z,1.30
2018-09-14T11:30:57.028Z,1.03
2018-09-14T11:33:25.876Z,1.27
2018-09-14T11:35:55.629Z,2.07
2018-09-14T11:38:24.558Z,0.90
2018-09-14T11:40:54.485Z,0.57
2018-09-14T11:43:23.340Z,2.53
2018-09-14T11:45:53.845Z,2.03
2018-09-14T11:48:22.714Z,1.23
2018-09-14T11:50:51.649Z,4.00
2018-09-14T11:53:21.554Z,4.13
2018-09-14T11:55:50.384Z,2.77
2018-09-14T11:58:19.260Z,1.10
2018-09-14T12:00:48.874Z,1.33
2018-09-14T12:03:17.735Z,1.80
2018-09-14T12:05:46.580Z,1.10
2018-09-14T12:08:15.392Z,3.70
2018-09-14T12:10:44.285Z,1.07
2018-09-14T12:13:13.388Z,1.33
2018-09-14T12:15:42.182Z,1.23
2018-09-14T12:18:10.997Z,1.03
2018-09-14T12:20:39.771Z,0.73
2018-09-14T12:23:08.628Z,0.53
2018-09-14T12:25:38.328Z,2.63
2018-09-14T12:28:07.961Z,3.83
2018-09-14T12:30:36.802Z,1.23
2018-09-14T12:33:05.665Z,1.90
2018-09-14T12:35:34.473Z,2.00
2018-09-14T12:38:03.382Z,1.13
2018-09-14T12:40:32.238Z,0.70
2018-09-14T12:43:01.099Z,2.13
2018-09-14T12:45:30.204Z,2.87
2018-09-14T12:47:59.015Z,0.50
2018-09-14T12:50:27.808Z,1.27
2018-09-14T12:52:57.644Z,1.30
2018-09-14T12:55:26.542Z,1.40
2018-09-14T12:57:55.520Z,2.57
2018-09-14T13:00:24.387Z,0.73
2018-09-14T13:02:54.898Z,1.40
2018-09-14T13:05:23.752Z,2.47
2018-09-14T13:07:52.553Z,1.93
2018-09-14T13:10:21.362Z,1.90
2018-09-14T13:12:50.211Z,0.87
2018-09-14T13:15:19.040Z,2.37
2018-09-14T13:17:47.972Z,0.97
2018-09-14T13:20:16.784Z,1.60
2018-09-14T13:22:45.685Z,1.57
2018-09-14T13:25:14.552Z,0.63
2018-09-14T13:27:43.440Z,2.63
2018-09-14T13:30:12.352Z,1.53
2018-09-14T13:32:43.374Z,0.90
2018-09-14T13:35:12.267Z,1.10
2018-09-14T13:37:41.120Z,0.50
2018-09-14T13:40:10.041Z,1.80
2018-09-14T13:42:38.864Z,3.80
2018-09-14T13:45:07.865Z,1.57
2018-09-14T13:47:36.669Z,0.90
2018-09-14T13:50:05.754Z,1.90
2018-09-14T13:52:34.619Z,2.23
2018-09-14T13:55:04.439Z,3.33
2018-09-14T13:57:33.220Z,2.07
2018-09-14T14:00:03.025Z,1.00
2018-09-14T14:02:31.992Z,1.30
2018-09-14T14:05:01.282Z,2.20
2018-09-14T14:07:30.116Z,1.00
2018-09-14T14:09:58.968Z,2.57
2018-09-14T14:12:27.756Z,1.53
2018-09-14T14:14:56.624Z,2.00
2018-09-14T14:17:25.564Z,4.23
2018-09-14T14:19:54.359Z,3.83
2018-09-14T14:22:23.127Z,1.37
2018-09-14T14:24:51.956Z,2.97
2018-09-14T14:27:20.752Z,3.97
2018-09-14T14:29:49.564Z,2.33
2018-09-14T14:32:18.432Z,3.23
2018-09-14T14:34:47.276Z,4.27
2018-09-14T14:37:16.204Z,2.20
2018-09-14T14:39:45.045Z,2.30
2018-09-14T14:42:13.900Z,1.33
2018-09-14T14:44:42.729Z,1.57
2018-09-14T14:47:12.013Z,4.27
2018-09-14T14:49:40.839Z,3.57
2018-09-14T14:52:10.466Z,3.03
2018-09-14T14:54:39.276Z,4.17
2018-09-14T14:57:08.453Z,5.03
2018-09-14T14:59:37.238Z,3.60
2018-09-14T15:02:06.109Z,4.47
2018-09-14T15:04:34.957Z,3.27
2018-09-14T15:07:03.812Z,1.90
2018-09-14T15:09:32.632Z,4.17
2018-09-14T15:12:01.491Z,2.57
2018-09-14T15:14:30.299Z,5.03
2018-09-14T15:16:59.171Z,6.53
2018-09-14T15:19:28.023Z,2.87
2018-09-14T15:21:56.785Z,9.53
2018-09-14T15:24:25.601Z,7.70
2018-09-14T15:26:54.386Z,3.40
2018-09-14T15:29:23.216Z,2.13
2018-09-14T15:31:52.081Z,4.40
2018-09-14T15:34:20.932Z,2.70
2018-09-14T15:36:49.766Z,1.80
2018-09-14T15:39:18.561Z,1.53
2018-09-14T15:41:47.371Z,2.30
2018-09-14T15:44:16.196Z,1.40
2018-09-14T15:46:45.871Z,2.67
2018-09-14T15:49:15.388Z,6.17
2018-09-14T15:51:44.147Z,4.70
2018-09-14T15:54:13.080Z,2.70
2018-09-14T15:56:41.860Z,1.43
2018-09-14T15:59:10.688Z,2.90
2018-09-14T16:01:39.500Z,2.70
2018-09-14T16:04:08.280Z,6.23
2018-09-14T16:06:37.078Z,3.73
2018-09-14T16:09:07.068Z,4.67
2018-09-14T16:11:35.921Z,4.90
2018-09-14T16:14:04.736Z,5.13
2018-09-14T16:16:34.084Z,3.50
2018-09-14T16:19:03.294Z,1.73
2018-09-14T16:21:32.265Z,4.07
2018-09-14T16:24:01.219Z,4.60
2018-09-14T16:26:30.136Z,4.27
2018-09-14T16:28:58.977Z,4.33
2018-09-14T16:31:27.773Z,4.50
2018-09-14T16:33:56.584Z,4.33
2018-09-14T16:36:25.376Z,2.23
2018-09-14T16:38:54.164Z,6.07
2018-09-14T16:41:23.036Z,4.43
2018-09-14T16:43:51.824Z,4.20
2018-09-14T16:46:20.604Z,5.40
2018-09-14T16:48:49.420Z,3.73
2018-09-14T16:51:18.226Z,3.77
2018-09-14T16:53:47.075Z,8.67
2018-09-14T16:56:16.749Z,3.07
2018-09-14T16:58:45.530Z,4.20
2018-09-14T17:01:14.348Z,4.37
2018-09-14T17:03:43.153Z,3.40
2018-09-14T17:06:12.014Z,5.30
2018-09-14T17:08:41.616Z,6.83
2018-09-14T17:11:10.500Z,6.07
2018-09-14T17:13:39.333Z,3.73
2018-09-14T17:16:08.129Z,3.53
2018-09-14T17:18:36.943Z,4.63
2018-09-14T17:21:05.876Z,5.03
2018-09-14T17:23:34.768Z,5.47
2018-09-14T17:26:03.624Z,5.80
2018-09-14T17:28:32.432Z,3.13
2018-09-14T17:31:01.242Z,5.07
2018-09-14T17:33:30.059Z,7.50
2018-09-14T17:35:58.872Z,6.33
2018-09-14T17:38:27.744Z,4.23
2018-09-14T17:40:56.533Z,5.63
2018-09-14T17:43:25.321Z,2.07
2018-09-14T17:45:54.153Z,2.17
2018-09-14T17:48:22.934Z,2.57
2018-09-14T17:50:51.788Z,5.03
2018-09-14T17:53:20.612Z,7.73
2018-09-14T17:55:49.404Z,2.70
2018-09-14T17:58:18.533Z,4.93
2018-09-14T18:00:47.355Z,3.03
2018-09-14T18:03:16.678Z,3.77
2018-09-14T18:05:45.428Z,3.53
2018-09-14T18:08:14.248Z,3.73
2018-09-14T18:10:43.303Z,6.63
2018-09-14T18:13:12.144Z,2.73
2018-09-14T18:15:41.076Z,7.60
2018-09-14T18:18:10.732Z,4.90
2018-09-14T18:20:39.549Z,5.30
2018-09-14T18:23:08.380Z,6.83
2018-09-14T18:25:37.404Z,3.57
2018-09-14T18:28:06.438Z,9.47
2018-09-14T18:30:35.283Z,5.43
2018-09-14T18:33:04.077Z,6.10
2018-09-14T18:35:32.906Z,5.63
2018-09-14T18:38:01.755Z,5.17
2018-09-14T18:40:31.228Z,7.17
2018-09-14T18:43:00.125Z,8.80
2018-09-14T18:45:28.968Z,2.63
2018-09-14T18:47:58.173Z,3.13
2018-09-14T18:50:27.112Z,3.63
2018-09-14T18:52:55.976Z,4.37
2018-09-14T18:55:24.840Z,2.13
2018-09-14T18:57:53.624Z,6.90
2018-09-14T19:00:23.462Z,4.60
2018-09-14T19:02:52.276Z,3.73
2018-09-14T19:05:21.678Z,2.20
2018-09-14T19:07:50.686Z,4.40
2018-09-14T19:10:19.509Z,6.17
2018-09-14T19:12:48.316Z,9.13
2018-09-14T19:15:17.482Z,5.13
2018-09-14T19:17:46.318Z,8.40
2018-09-14T19:20:16.238Z,6.20
2018-09-14T19:22:45.083Z,4.43
2018-09-14T19:25:13.908Z,4.20
2018-09-14T19:27:42.741Z,8.27
2018-09-14T19:30:11.938Z,9.53
2018-09-14T19:32:40.826Z,8.63
2018-09-14T19:35:09.677Z,7.73
2018-09-14T19:37:39.355Z,5.47
2018-09-14T19:40:08.249Z,6.53
2018-09-14T19:42:37.071Z,6.43
2018-09-14T19:45:06.424Z,8.03
2018-09-14T19:47:35.269Z,4.73
2018-09-14T19:50:04.170Z,8.70
2018-09-14T19:52:33.047Z,3.87
2018-09-14T19:55:01.870Z,6.50
2018-09-14T19:57:30.727Z,4.63
2018-09-14T19:59:59.609Z,7.90
2018-09-14T20:02:28.580Z,6.97
2018-09-14T20:04:57.444Z,5.73
2018-09-14T20:07:26.269Z,6.47
2018-09-14T20:09:55.121Z,6.67
2018-09-14T20:12:23.939Z,7.33
2018-09-14T20:14:53.104Z,7.60
2018-09-14T20:17:22.728Z,5.20
2018-09-14T20:19:51.818Z,5.37
2018-09-14T20:22:21.595Z,2.90
2018-09-14T20:24:51.759Z,5.83
2018-09-14T20:27:20.572Z,2.93
2018-09-14T20:29:49.701Z,5.77
2018-09-14T20:32:18.558Z,7.27
2018-09-14T20:34:47.810Z,2.33
2018-09-14T20:37:16.751Z,7.53
2018-09-14T20:39:45.568Z,6.53
2018-09-14T20:42:14.868Z,5.23
2018-09-14T20:44:43.774Z,5.33
2018-09-14T20:47:14.026Z,4.63
2018-09-14T20:49:42.909Z,7.27
2018-09-14T20:52:11.699Z,6.40
2018-09-14T20:54:40.526Z,6.67
2018-09-14T20:57:09.369Z,7.33
2018-09-14T20:59:38.257Z,15.60
2018-09-14T21:02:07.100Z,7.50
2018-09-14T21:04:35.925Z,6.00
2018-09-14T21:07:04.747Z,6.30
2018-09-14T21:09:33.605Z,7.43
2018-09-14T21:12:02.463Z,10.93
2018-09-14T21:14:31.406Z,8.63
2018-09-14T21:17:00.208Z,6.20
2018-09-14T21:19:29.733Z,12.53
2018-09-14T21:21:58.641Z,13.47
2018-09-14T21:24:27.468Z,8.53
2018-09-14T21:26:56.288Z,6.47
2018-09-14T21:29:25.271Z,8.43
2018-09-14T21:31:54.081Z,10.50
2018-09-14T21:34:22.997Z,7.50
2018-09-14T21:36:51.864Z,7.07
2018-09-14T21:39:20.645Z,7.67
2018-09-14T21:41:49.496Z,6.77
2018-09-14T21:44:18.299Z,7.57
2018-09-14T21:46:47.193Z,8.40
2018-09-14T21:49:16.010Z,14.70
2018-09-14T21:51:44.792Z,10.47
2018-09-14T21:54:13.673Z,7.60
2018-09-14T21:56:42.460Z,6.80
2018-09-14T21:59:11.269Z,11.33
2018-09-14T22:01:40.052Z,12.27
2018-09-14T22:04:08.856Z,12.37
2018-09-14T22:06:37.731Z,7.27
2018-09-14T22:09:07.903Z,10.50
2018-09-14T22:11:37.017Z,11.00
2018-09-14T22:14:05.905Z,12.70
2018-09-14T22:16:34.701Z,10.87
2018-09-14T22:19:03.541Z,11.93
2018-09-14T22:21:32.380Z,7.67
2018-09-14T22:24:01.148Z,8.93
2018-09-14T22:26:30.021Z,9.93
2018-09-14T22:28:59.104Z,10.67
2018-09-14T22:31:27.930Z,6.10
2018-09-14T22:33:56.736Z,11.70
2018-09-14T22:36:25.523Z,7.30
2018-09-14T22:38:54.340Z,10.27
2018-09-14T22:41:23.153Z,13.73
2018-09-14T22:43:51.992Z,9.20
2018-09-14T22:46:20.839Z,7.97
2018-09-14T22:48:49.673Z,11.40
2018-09-14T22:51:18.505Z,8.70
2018-09-14T22:53:47.381Z,16.23
2018-09-14T22:56:16.226Z,7.87
2018-09-14T22:58:45.060Z,10.00
2018-09-14T23:01:18.369Z,9.03
2018-09-14T23:03:48.294Z,9.27
2018-09-14T23:06:18.340Z,8.90
2018-09-14T23:08:47.128Z,5.83
2018-09-14T23:11:15.984Z,6.87
2018-09-14T23:13:44.831Z,12.73
2018-09-14T23:16:13.632Z,7.20
2018-09-14T23:18:42.460Z,11.17
2018-09-14T23:21:11.245Z,7.00
2018-09-14T23:23:40.084Z,10.87
2018-09-14T23:26:11.172Z,10.90
2018-09-14T23:28:39.963Z,6.20
2018-09-14T23:31:08.756Z,13.50
2018-09-14T23:33:37.837Z,7.60
2018-09-14T23:36:06.677Z,7.03
2018-09-14T23:38:35.448Z,8.03
2018-09-14T23:41:04.283Z,11.03
2018-09-14T23:43:33.075Z,12.10
2018-09-14T23:46:01.876Z,6.20
2018-09-14T23:48:30.727Z,6.27
2018-09-14T23:50:59.521Z,4.30
2018-09-14T23:53:28.326Z,8.47
2018-09-14T23:55:57.140Z,12.10
2018-09-14T23:58:25.985Z,5.83
